sensor_id;sensor_type;location;lat;lon;timestamp;P1;durP1;ratioP1;P2;durP2;ratioP2
10523;SDS011;5310;48.638;9.060;2023-07-24T00:02:00;1.50;;;1.30;;
10523;SDS011;5310;48.638;9.060;2023-07-24T00:04:26;1.70;;;1.30;;
10523;SDS011;5310;48.638;9.060;2023-07-24T00:06:52;1.25;;;1.15;;
10523;SDS011;5310;48.638;9.060;2023-07-24T00:09:19;1.10;;;1.00;;
10523;SDS011;5310;48.638;9.060;2023-07-24T00:11:45;1.80;;;1.38;;
10523;SDS011;5310;48.638;9.060;2023-07-24T00:14:11;1.27;;;1.10;;
10523;SDS011;5310;48.638;9.060;2023-07-24T00:16:37;1.42;;;1.20;;
10523;SDS011;5310;48.638;9.060;2023-07-24T00:19:03;1.52;;;1.30;;
10523;SDS011;5310;48.638;9.060;2023-07-24T00:21:29;1.35;;;1.10;;
10523;SDS011;5310;48.638;9.060;2023-07-24T00:23:55;1.30;;;1.13;;
10523;SDS011;5310;48.638;9.060;2023-07-24T00:26:21;1.10;;;1.00;;
10523;SDS011;5310;48.638;9.060;2023-07-24T00:28:47;2.30;;;1.50;;
10523;SDS011;5310;48.638;9.060;2023-07-24T00:31:13;2.47;;;1.60;;
10523;SDS011;5310;48.638;9.060;2023-07-24T00:33:39;1.60;;;1.27;;
10523;SDS011;5310;48.638;9.060;2023-07-24T00:36:05;1.80;;;1.40;;
10523;SDS011;5310;48.638;9.060;2023-07-24T00:38:31;3.20;;;1.83;;
10523;SDS011;5310;48.638;9.060;2023-07-24T00:40:57;2.20;;;1.50;;
10523;SDS011;5310;48.638;9.060;2023-07-24T00:43:23;1.95;;;1.42;;
10523;SDS011;5310;48.638;9.060;2023-07-24T00:45:49;1.38;;;1.10;;
10523;SDS011;5310;48.638;9.060;2023-07-24T00:48:15;1.00;;;0.90;;
10523;SDS011;5310;48.638;9.060;2023-07-24T00:50:42;1.95;;;1.48;;
10523;SDS011;5310;48.638;9.060;2023-07-24T00:53:08;1.20;;;1.10;;
10523;SDS011;5310;48.638;9.060;2023-07-24T00:55:34;1.17;;;1.05;;
10523;SDS011;5310;48.638;9.060;2023-07-24T00:58:00;1.15;;;1.00;;
10523;SDS011;5310;48.638;9.060;2023-07-24T01:00:29;1.85;;;1.30;;
10523;SDS011;5310;48.638;9.060;2023-07-24T01:02:55;1.25;;;1.10;;
10523;SDS011;5310;48.638;9.060;2023-07-24T01:05:22;1.20;;;1.10;;
10523;SDS011;5310;48.638;9.060;2023-07-24T01:07:50;1.65;;;1.30;;
10523;SDS011;5310;48.638;9.060;2023-07-24T01:10:16;2.35;;;1.50;;
10523;SDS011;5310;48.638;9.060;2023-07-24T01:12:50;2.55;;;1.65;;
10523;SDS011;5310;48.638;9.060;2023-07-24T01:15:36;1.35;;;1.25;;
10523;SDS011;5310;48.638;9.060;2023-07-24T01:18:06;2.08;;;1.50;;
10523;SDS011;5310;48.638;9.060;2023-07-24T01:20:33;2.15;;;1.60;;
10523;SDS011;5310;48.638;9.060;2023-07-24T01:25:28;2.25;;;1.55;;
10523;SDS011;5310;48.638;9.060;2023-07-24T01:27:57;1.90;;;1.40;;
10523;SDS011;5310;48.638;9.060;2023-07-24T01:30:23;2.58;;;1.50;;
10523;SDS011;5310;48.638;9.060;2023-07-24T01:32:49;2.27;;;1.57;;
10523;SDS011;5310;48.638;9.060;2023-07-24T01:35:15;2.10;;;1.50;;
10523;SDS011;5310;48.638;9.060;2023-07-24T01:37:41;2.00;;;1.40;;
10523;SDS011;5310;48.638;9.060;2023-07-24T01:40:08;2.05;;;1.40;;
10523;SDS011;5310;48.638;9.060;2023-07-24T01:42:35;2.27;;;1.50;;
10523;SDS011;5310;48.638;9.060;2023-07-24T01:45:02;2.17;;;1.50;;
10523;SDS011;5310;48.638;9.060;2023-07-24T01:47:28;1.70;;;1.40;;
10523;SDS011;5310;48.638;9.060;2023-07-24T01:49:54;2.22;;;1.52;;
10523;SDS011;5310;48.638;9.060;2023-07-24T01:52:20;2.00;;;1.40;;
10523;SDS011;5310;48.638;9.060;2023-07-24T01:54:46;2.17;;;1.50;;
10523;SDS011;5310;48.638;9.060;2023-07-24T01:57:12;2.17;;;1.50;;
10523;SDS011;5310;48.638;9.060;2023-07-24T01:59:38;2.27;;;1.50;;
10523;SDS011;5310;48.638;9.060;2023-07-24T02:02:04;2.17;;;1.50;;
10523;SDS011;5310;48.638;9.060;2023-07-24T02:04:30;2.00;;;1.38;;
10523;SDS011;5310;48.638;9.060;2023-07-24T02:06:56;1.98;;;1.50;;
10523;SDS011;5310;48.638;9.060;2023-07-24T02:09:22;1.75;;;1.30;;
10523;SDS011;5310;48.638;9.060;2023-07-24T02:11:48;1.65;;;1.30;;
10523;SDS011;5310;48.638;9.060;2023-07-24T02:14:14;1.40;;;1.30;;
10523;SDS011;5310;48.638;9.060;2023-07-24T02:16:41;1.70;;;1.33;;
10523;SDS011;5310;48.638;9.060;2023-07-24T02:19:07;1.73;;;1.43;;
10523;SDS011;5310;48.638;9.060;2023-07-24T02:21:33;2.65;;;1.60;;
10523;SDS011;5310;48.638;9.060;2023-07-24T02:23:59;2.53;;;1.60;;
10523;SDS011;5310;48.638;9.060;2023-07-24T02:26:25;2.50;;;1.50;;
10523;SDS011;5310;48.638;9.060;2023-07-24T02:28:51;2.75;;;1.63;;
10523;SDS011;5310;48.638;9.060;2023-07-24T02:31:18;2.22;;;1.40;;
10523;SDS011;5310;48.638;9.060;2023-07-24T02:33:44;2.60;;;1.60;;
10523;SDS011;5310;48.638;9.060;2023-07-24T02:36:10;2.63;;;1.60;;
10523;SDS011;5310;48.638;9.060;2023-07-24T02:38:36;2.40;;;1.45;;
10523;SDS011;5310;48.638;9.060;2023-07-24T02:41:02;2.45;;;1.60;;
10523;SDS011;5310;48.638;9.060;2023-07-24T02:43:28;2.05;;;1.40;;
10523;SDS011;5310;48.638;9.060;2023-07-24T02:45:54;2.27;;;1.47;;
10523;SDS011;5310;48.638;9.060;2023-07-24T02:48:20;1.63;;;1.27;;
10523;SDS011;5310;48.638;9.060;2023-07-24T02:50:49;2.60;;;1.58;;
10523;SDS011;5310;48.638;9.060;2023-07-24T02:53:15;2.45;;;1.50;;
10523;SDS011;5310;48.638;9.060;2023-07-24T02:55:41;3.03;;;1.73;;
10523;SDS011;5310;48.638;9.060;2023-07-24T02:58:08;2.42;;;1.55;;
10523;SDS011;5310;48.638;9.060;2023-07-24T03:00:34;3.20;;;1.75;;
10523;SDS011;5310;48.638;9.060;2023-07-24T03:03:00;2.38;;;1.50;;
10523;SDS011;5310;48.638;9.060;2023-07-24T03:05:26;2.90;;;1.63;;
10523;SDS011;5310;48.638;9.060;2023-07-24T03:07:52;1.97;;;1.40;;
10523;SDS011;5310;48.638;9.060;2023-07-24T03:10:18;2.47;;;1.47;;
10523;SDS011;5310;48.638;9.060;2023-07-24T03:12:43;2.47;;;1.60;;
10523;SDS011;5310;48.638;9.060;2023-07-24T03:15:09;1.65;;;1.30;;
10523;SDS011;5310;48.638;9.060;2023-07-24T03:17:35;2.30;;;1.50;;
10523;SDS011;5310;48.638;9.060;2023-07-24T03:20:19;1.42;;;1.13;;
10523;SDS011;5310;48.638;9.060;2023-07-24T03:22:46;2.10;;;1.40;;
10523;SDS011;5310;48.638;9.060;2023-07-24T03:25:12;1.30;;;1.10;;
10523;SDS011;5310;48.638;9.060;2023-07-24T03:27:38;1.45;;;1.20;;
10523;SDS011;5310;48.638;9.060;2023-07-24T03:30:05;1.70;;;1.20;;
10523;SDS011;5310;48.638;9.060;2023-07-24T03:32:31;1.55;;;1.10;;
10523;SDS011;5310;48.638;9.060;2023-07-24T03:34:57;1.38;;;1.10;;
10523;SDS011;5310;48.638;9.060;2023-07-24T03:37:23;1.25;;;1.10;;
10523;SDS011;5310;48.638;9.060;2023-07-24T03:39:48;1.17;;;1.08;;
10523;SDS011;5310;48.638;9.060;2023-07-24T03:42:24;1.50;;;1.20;;
10523;SDS011;5310;48.638;9.060;2023-07-24T03:44:51;1.42;;;1.13;;
10523;SDS011;5310;48.638;9.060;2023-07-24T03:47:17;1.60;;;1.20;;
10523;SDS011;5310;48.638;9.060;2023-07-24T03:49:43;0.90;;;0.80;;
10523;SDS011;5310;48.638;9.060;2023-07-24T03:52:08;1.30;;;1.10;;
10523;SDS011;5310;48.638;9.060;2023-07-24T03:54:34;1.48;;;1.15;;
10523;SDS011;5310;48.638;9.060;2023-07-24T03:57:00;1.20;;;1.10;;
10523;SDS011;5310;48.638;9.060;2023-07-24T03:59:27;1.40;;;1.10;;
10523;SDS011;5310;48.638;9.060;2023-07-24T04:01:53;1.20;;;1.00;;
10523;SDS011;5310;48.638;9.060;2023-07-24T04:04:19;1.67;;;1.23;;
10523;SDS011;5310;48.638;9.060;2023-07-24T04:06:45;1.27;;;1.08;;
10523;SDS011;5310;48.638;9.060;2023-07-24T04:09:11;1.38;;;1.10;;
10523;SDS011;5310;48.638;9.060;2023-07-24T04:11:39;1.42;;;1.10;;
10523;SDS011;5310;48.638;9.060;2023-07-24T04:14:05;1.10;;;0.90;;
10523;SDS011;5310;48.638;9.060;2023-07-24T04:16:31;1.33;;;1.10;;
10523;SDS011;5310;48.638;9.060;2023-07-24T04:18:57;1.30;;;1.10;;
10523;SDS011;5310;48.638;9.060;2023-07-24T04:21:23;1.67;;;1.20;;
10523;SDS011;5310;48.638;9.060;2023-07-24T04:23:49;1.20;;;1.00;;
10523;SDS011;5310;48.638;9.060;2023-07-24T04:26:15;1.05;;;0.90;;
10523;SDS011;5310;48.638;9.060;2023-07-24T04:28:41;1.23;;;1.00;;
10523;SDS011;5310;48.638;9.060;2023-07-24T04:31:07;1.17;;;1.00;;
10523;SDS011;5310;48.638;9.060;2023-07-24T04:33:33;2.22;;;1.42;;
10523;SDS011;5310;48.638;9.060;2023-07-24T04:35:59;2.00;;;1.33;;
10523;SDS011;5310;48.638;9.060;2023-07-24T04:38:25;2.67;;;1.65;;
10523;SDS011;5310;48.638;9.060;2023-07-24T04:40:51;3.13;;;1.70;;
10523;SDS011;5310;48.638;9.060;2023-07-24T04:43:17;2.58;;;1.60;;
10523;SDS011;5310;48.638;9.060;2023-07-24T04:45:43;2.83;;;1.60;;
10523;SDS011;5310;48.638;9.060;2023-07-24T04:48:09;2.95;;;1.70;;
10523;SDS011;5310;48.638;9.060;2023-07-24T04:50:34;3.05;;;1.70;;
10523;SDS011;5310;48.638;9.060;2023-07-24T04:53:00;2.80;;;1.60;;
10523;SDS011;5310;48.638;9.060;2023-07-24T04:55:26;2.27;;;1.40;;
10523;SDS011;5310;48.638;9.060;2023-07-24T04:57:52;3.00;;;1.70;;
10523;SDS011;5310;48.638;9.060;2023-07-24T05:00:18;3.30;;;1.70;;
10523;SDS011;5310;48.638;9.060;2023-07-24T05:02:44;2.47;;;1.50;;
10523;SDS011;5310;48.638;9.060;2023-07-24T05:05:10;2.83;;;1.60;;
10523;SDS011;5310;48.638;9.060;2023-07-24T05:07:36;2.50;;;1.50;;
10523;SDS011;5310;48.638;9.060;2023-07-24T05:10:02;2.80;;;1.58;;
10523;SDS011;5310;48.638;9.060;2023-07-24T05:12:28;3.10;;;1.70;;
10523;SDS011;5310;48.638;9.060;2023-07-24T05:14:54;2.83;;;1.60;;
10523;SDS011;5310;48.638;9.060;2023-07-24T05:17:20;3.22;;;1.70;;
10523;SDS011;5310;48.638;9.060;2023-07-24T05:19:46;3.05;;;1.70;;
10523;SDS011;5310;48.638;9.060;2023-07-24T05:22:12;2.83;;;1.65;;
10523;SDS011;5310;48.638;9.060;2023-07-24T05:24:38;2.85;;;1.65;;
10523;SDS011;5310;48.638;9.060;2023-07-24T05:27:04;3.30;;;1.73;;
10523;SDS011;5310;48.638;9.060;2023-07-24T05:29:31;2.75;;;1.60;;
10523;SDS011;5310;48.638;9.060;2023-07-24T05:31:57;2.83;;;1.65;;
10523;SDS011;5310;48.638;9.060;2023-07-24T05:34:24;2.60;;;1.60;;
10523;SDS011;5310;48.638;9.060;2023-07-24T05:36:49;2.63;;;1.50;;
10523;SDS011;5310;48.638;9.060;2023-07-24T05:39:15;2.65;;;1.50;;
10523;SDS011;5310;48.638;9.060;2023-07-24T05:41:41;3.15;;;1.70;;
10523;SDS011;5310;48.638;9.060;2023-07-24T05:44:07;2.80;;;1.60;;
10523;SDS011;5310;48.638;9.060;2023-07-24T05:46:33;2.60;;;1.60;;
10523;SDS011;5310;48.638;9.060;2023-07-24T05:48:59;2.42;;;1.50;;
10523;SDS011;5310;48.638;9.060;2023-07-24T05:51:28;2.60;;;1.60;;
10523;SDS011;5310;48.638;9.060;2023-07-24T05:53:54;2.28;;;1.50;;
10523;SDS011;5310;48.638;9.060;2023-07-24T05:56:20;2.42;;;1.42;;
10523;SDS011;5310;48.638;9.060;2023-07-24T05:58:46;2.30;;;1.50;;
10523;SDS011;5310;48.638;9.060;2023-07-24T06:01:12;2.22;;;1.42;;
10523;SDS011;5310;48.638;9.060;2023-07-24T06:03:38;2.38;;;1.40;;
10523;SDS011;5310;48.638;9.060;2023-07-24T06:06:04;2.03;;;1.30;;
10523;SDS011;5310;48.638;9.060;2023-07-24T06:08:30;2.25;;;1.45;;
10523;SDS011;5310;48.638;9.060;2023-07-24T06:10:56;2.05;;;1.40;;
10523;SDS011;5310;48.638;9.060;2023-07-24T06:13:22;1.93;;;1.30;;
10523;SDS011;5310;48.638;9.060;2023-07-24T06:15:49;2.53;;;1.50;;
10523;SDS011;5310;48.638;9.060;2023-07-24T06:18:15;2.40;;;1.50;;
10523;SDS011;5310;48.638;9.060;2023-07-24T06:20:41;2.93;;;1.70;;
10523;SDS011;5310;48.638;9.060;2023-07-24T06:23:07;2.55;;;1.52;;
10523;SDS011;5310;48.638;9.060;2023-07-24T06:25:33;2.10;;;1.30;;
10523;SDS011;5310;48.638;9.060;2023-07-24T06:27:59;2.03;;;1.40;;
10523;SDS011;5310;48.638;9.060;2023-07-24T06:30:25;2.88;;;1.60;;
10523;SDS011;5310;48.638;9.060;2023-07-24T06:32:51;2.22;;;1.40;;
10523;SDS011;5310;48.638;9.060;2023-07-24T06:35:17;2.53;;;1.60;;
10523;SDS011;5310;48.638;9.060;2023-07-24T06:37:43;2.50;;;1.50;;
10523;SDS011;5310;48.638;9.060;2023-07-24T06:40:10;1.95;;;1.38;;
10523;SDS011;5310;48.638;9.060;2023-07-24T06:42:36;1.90;;;1.30;;
10523;SDS011;5310;48.638;9.060;2023-07-24T06:45:02;1.90;;;1.30;;
10523;SDS011;5310;48.638;9.060;2023-07-24T06:47:28;1.20;;;1.10;;
10523;SDS011;5310;48.638;9.060;2023-07-24T06:49:54;1.10;;;1.00;;
10523;SDS011;5310;48.638;9.060;2023-07-24T06:52:20;1.27;;;1.10;;
10523;SDS011;5310;48.638;9.060;2023-07-24T06:54:46;1.98;;;1.40;;
10523;SDS011;5310;48.638;9.060;2023-07-24T06:57:12;2.15;;;1.40;;
10523;SDS011;5310;48.638;9.060;2023-07-24T06:59:38;1.80;;;1.27;;
10523;SDS011;5310;48.638;9.060;2023-07-24T07:02:04;2.03;;;1.38;;
10523;SDS011;5310;48.638;9.060;2023-07-24T07:04:30;2.08;;;1.30;;
10523;SDS011;5310;48.638;9.060;2023-07-24T07:06:55;2.00;;;1.30;;
10523;SDS011;5310;48.638;9.060;2023-07-24T07:09:21;1.63;;;1.20;;
10523;SDS011;5310;48.638;9.060;2023-07-24T07:11:47;1.97;;;1.30;;
10523;SDS011;5310;48.638;9.060;2023-07-24T07:14:13;1.20;;;1.08;;
10523;SDS011;5310;48.638;9.060;2023-07-24T07:16:39;1.30;;;1.20;;
10523;SDS011;5310;48.638;9.060;2023-07-24T07:19:05;1.97;;;1.30;;
10523;SDS011;5310;48.638;9.060;2023-07-24T07:21:34;1.80;;;1.27;;
10523;SDS011;5310;48.638;9.060;2023-07-24T07:24:00;1.80;;;1.30;;
10523;SDS011;5310;48.638;9.060;2023-07-24T07:26:26;1.42;;;1.00;;
10523;SDS011;5310;48.638;9.060;2023-07-24T07:28:54;1.75;;;1.40;;
10523;SDS011;5310;48.638;9.060;2023-07-24T07:31:20;1.60;;;1.20;;
10523;SDS011;5310;48.638;9.060;2023-07-24T07:33:46;1.10;;;1.00;;
10523;SDS011;5310;48.638;9.060;2023-07-24T07:36:12;1.65;;;1.20;;
10523;SDS011;5310;48.638;9.060;2023-07-24T07:38:38;1.70;;;1.20;;
10523;SDS011;5310;48.638;9.060;2023-07-24T07:41:04;1.13;;;1.02;;
10523;SDS011;5310;48.638;9.060;2023-07-24T07:43:31;1.35;;;1.17;;
10523;SDS011;5310;48.638;9.060;2023-07-24T07:45:56;1.38;;;1.20;;
10523;SDS011;5310;48.638;9.060;2023-07-24T07:48:24;1.20;;;1.10;;
10523;SDS011;5310;48.638;9.060;2023-07-24T07:50:53;2.20;;;1.40;;
10523;SDS011;5310;48.638;9.060;2023-07-24T07:53:19;1.58;;;1.02;;
10523;SDS011;5310;48.638;9.060;2023-07-24T07:55:45;1.95;;;1.20;;
10523;SDS011;5310;48.638;9.060;2023-07-24T07:58:11;1.95;;;1.15;;
10523;SDS011;5310;48.638;9.060;2023-07-24T08:00:37;2.13;;;1.23;;
10523;SDS011;5310;48.638;9.060;2023-07-24T08:03:06;2.30;;;1.30;;
10523;SDS011;5310;48.638;9.060;2023-07-24T08:05:32;2.13;;;1.25;;
10523;SDS011;5310;48.638;9.060;2023-07-24T08:07:58;3.08;;;1.58;;
10523;SDS011;5310;48.638;9.060;2023-07-24T08:10:23;4.38;;;1.85;;
10523;SDS011;5310;48.638;9.060;2023-07-24T08:12:50;4.30;;;1.83;;
10523;SDS011;5310;48.638;9.060;2023-07-24T08:15:16;4.95;;;2.13;;
10523;SDS011;5310;48.638;9.060;2023-07-24T08:17:41;3.67;;;1.70;;
10523;SDS011;5310;48.638;9.060;2023-07-24T08:20:07;3.00;;;1.60;;
10523;SDS011;5310;48.638;9.060;2023-07-24T08:22:33;3.13;;;1.63;;
10523;SDS011;5310;48.638;9.060;2023-07-24T08:25:00;1.70;;;1.08;;
10523;SDS011;5310;48.638;9.060;2023-07-24T08:27:25;1.25;;;0.90;;
10523;SDS011;5310;48.638;9.060;2023-07-24T08:29:52;1.45;;;1.00;;
10523;SDS011;5310;48.638;9.060;2023-07-24T08:32:18;1.58;;;1.02;;
10523;SDS011;5310;48.638;9.060;2023-07-24T08:34:44;1.38;;;0.95;;
10523;SDS011;5310;48.638;9.060;2023-07-24T08:37:11;1.20;;;0.90;;
10523;SDS011;5310;48.638;9.060;2023-07-24T08:39:37;1.40;;;0.90;;
10523;SDS011;5310;48.638;9.060;2023-07-24T08:42:12;1.40;;;0.95;;
10523;SDS011;5310;48.638;9.060;2023-07-24T08:44:38;1.45;;;1.00;;
10523;SDS011;5310;48.638;9.060;2023-07-24T08:47:04;1.60;;;1.10;;
10523;SDS011;5310;48.638;9.060;2023-07-24T08:49:32;2.35;;;1.38;;
10523;SDS011;5310;48.638;9.060;2023-07-24T08:51:59;1.55;;;1.10;;
10523;SDS011;5310;48.638;9.060;2023-07-24T08:54:26;1.70;;;1.10;;
10523;SDS011;5310;48.638;9.060;2023-07-24T08:56:52;1.88;;;1.17;;
10523;SDS011;5310;48.638;9.060;2023-07-24T08:59:20;1.40;;;1.00;;
10523;SDS011;5310;48.638;9.060;2023-07-24T09:01:46;1.23;;;0.90;;
10523;SDS011;5310;48.638;9.060;2023-07-24T09:04:12;1.30;;;1.00;;
10523;SDS011;5310;48.638;9.060;2023-07-24T09:06:38;1.05;;;0.90;;
10523;SDS011;5310;48.638;9.060;2023-07-24T09:09:14;1.15;;;1.05;;
10523;SDS011;5310;48.638;9.060;2023-07-24T09:11:50;1.10;;;1.00;;
10523;SDS011;5310;48.638;9.060;2023-07-24T09:14:23;1.02;;;0.93;;
10523;SDS011;5310;48.638;9.060;2023-07-24T09:16:50;1.25;;;1.08;;
10523;SDS011;5310;48.638;9.060;2023-07-24T09:19:36;1.27;;;1.00;;
10523;SDS011;5310;48.638;9.060;2023-07-24T09:24:35;1.00;;;0.90;;
10523;SDS011;5310;48.638;9.060;2023-07-24T09:27:04;1.27;;;0.90;;
10523;SDS011;5310;48.638;9.060;2023-07-24T09:29:31;1.85;;;1.23;;
10523;SDS011;5310;48.638;9.060;2023-07-24T09:31:57;1.35;;;1.15;;
10523;SDS011;5310;48.638;9.060;2023-07-24T09:34:23;0.80;;;0.80;;
10523;SDS011;5310;48.638;9.060;2023-07-24T09:36:50;1.10;;;1.00;;
10523;SDS011;5310;48.638;9.060;2023-07-24T12:28:32;1.27;;;1.10;;
10523;SDS011;5310;48.638;9.060;2023-07-24T12:30:58;1.70;;;1.20;;
10523;SDS011;5310;48.638;9.060;2023-07-24T12:33:24;1.23;;;0.98;;
10523;SDS011;5310;48.638;9.060;2023-07-24T12:35:50;1.42;;;1.17;;
10523;SDS011;5310;48.638;9.060;2023-07-24T12:38:16;1.85;;;1.42;;
10523;SDS011;5310;48.638;9.060;2023-07-24T12:40:42;2.03;;;1.50;;
10523;SDS011;5310;48.638;9.060;2023-07-24T12:43:08;1.35;;;1.10;;
10523;SDS011;5310;48.638;9.060;2023-07-24T12:45:33;1.10;;;1.00;;
10523;SDS011;5310;48.638;9.060;2023-07-24T12:47:59;1.20;;;1.02;;
10523;SDS011;5310;48.638;9.060;2023-07-24T12:50:25;2.13;;;1.40;;
10523;SDS011;5310;48.638;9.060;2023-07-24T12:52:50;1.67;;;1.30;;
10523;SDS011;5310;48.638;9.060;2023-07-24T12:55:16;1.40;;;1.20;;
10523;SDS011;5310;48.638;9.060;2023-07-24T12:57:42;0.95;;;0.88;;
10523;SDS011;5310;48.638;9.060;2023-07-24T13:00:08;1.00;;;0.90;;
10523;SDS011;5310;48.638;9.060;2023-07-24T13:02:34;1.35;;;1.15;;
10523;SDS011;5310;48.638;9.060;2023-07-24T13:05:00;1.40;;;1.10;;
10523;SDS011;5310;48.638;9.060;2023-07-24T13:07:26;1.30;;;1.20;;
10523;SDS011;5310;48.638;9.060;2023-07-24T13:09:52;1.20;;;1.00;;
10523;SDS011;5310;48.638;9.060;2023-07-24T13:12:17;1.10;;;1.00;;
10523;SDS011;5310;48.638;9.060;2023-07-24T13:14:43;0.90;;;0.90;;
10523;SDS011;5310;48.638;9.060;2023-07-24T13:17:09;1.20;;;1.10;;
10523;SDS011;5310;48.638;9.060;2023-07-24T13:19:35;1.10;;;1.00;;
10523;SDS011;5310;48.638;9.060;2023-07-24T13:22:01;1.30;;;1.17;;
10523;SDS011;5310;48.638;9.060;2023-07-24T13:24:27;0.70;;;0.70;;
10523;SDS011;5310;48.638;9.060;2023-07-24T13:26:53;1.45;;;1.30;;
10523;SDS011;5310;48.638;9.060;2023-07-24T13:29:19;1.20;;;1.10;;
10523;SDS011;5310;48.638;9.060;2023-07-24T13:31:45;1.25;;;1.15;;
10523;SDS011;5310;48.638;9.060;2023-07-24T13:34:11;0.98;;;0.98;;
10523;SDS011;5310;48.638;9.060;2023-07-24T13:36:37;0.75;;;0.75;;
10523;SDS011;5310;48.638;9.060;2023-07-24T13:39:03;1.08;;;0.98;;
10523;SDS011;5310;48.638;9.060;2023-07-24T13:41:28;1.05;;;0.98;;
10523;SDS011;5310;48.638;9.060;2023-07-24T13:43:54;0.95;;;0.88;;
10523;SDS011;5310;48.638;9.060;2023-07-24T13:46:20;1.08;;;1.00;;
10523;SDS011;5310;48.638;9.060;2023-07-24T13:48:46;0.90;;;0.90;;
10523;SDS011;5310;48.638;9.060;2023-07-24T13:51:12;1.10;;;1.00;;
10523;SDS011;5310;48.638;9.060;2023-07-24T13:53:38;1.20;;;1.10;;
10523;SDS011;5310;48.638;9.060;2023-07-24T13:56:04;0.90;;;0.90;;
10523;SDS011;5310;48.638;9.060;2023-07-24T13:58:30;1.10;;;1.00;;
10523;SDS011;5310;48.638;9.060;2023-07-24T14:00:56;1.20;;;1.10;;
10523;SDS011;5310;48.638;9.060;2023-07-24T14:03:22;0.80;;;0.80;;
10523;SDS011;5310;48.638;9.060;2023-07-24T14:05:51;0.90;;;0.90;;
10523;SDS011;5310;48.638;9.060;2023-07-24T14:08:17;0.90;;;0.85;;
10523;SDS011;5310;48.638;9.060;2023-07-24T14:10:42;1.10;;;1.00;;
10523;SDS011;5310;48.638;9.060;2023-07-24T14:13:08;1.25;;;1.00;;
10523;SDS011;5310;48.638;9.060;2023-07-24T14:15:35;1.00;;;0.90;;
10523;SDS011;5310;48.638;9.060;2023-07-24T14:18:01;0.88;;;0.88;;
10523;SDS011;5310;48.638;9.060;2023-07-24T14:20:27;1.38;;;0.93;;
10523;SDS011;5310;48.638;9.060;2023-07-24T14:22:53;1.30;;;1.00;;
10523;SDS011;5310;48.638;9.060;2023-07-24T14:25:19;0.80;;;0.77;;
10523;SDS011;5310;48.638;9.060;2023-07-24T14:27:44;1.13;;;1.00;;
10523;SDS011;5310;48.638;9.060;2023-07-24T14:30:11;1.10;;;1.00;;
10523;SDS011;5310;48.638;9.060;2023-07-24T14:32:36;0.95;;;0.88;;
10523;SDS011;5310;48.638;9.060;2023-07-24T14:35:02;1.10;;;0.93;;
10523;SDS011;5310;48.638;9.060;2023-07-24T14:37:28;1.15;;;1.00;;
10523;SDS011;5310;48.638;9.060;2023-07-24T14:39:54;1.70;;;1.25;;
10523;SDS011;5310;48.638;9.060;2023-07-24T14:42:20;0.90;;;0.82;;
10523;SDS011;5310;48.638;9.060;2023-07-24T14:44:46;0.98;;;0.90;;
10523;SDS011;5310;48.638;9.060;2023-07-24T14:47:12;1.15;;;1.05;;
10523;SDS011;5310;48.638;9.060;2023-07-24T14:49:38;1.08;;;0.98;;
10523;SDS011;5310;48.638;9.060;2023-07-24T14:52:04;1.10;;;1.00;;
10523;SDS011;5310;48.638;9.060;2023-07-24T14:54:30;1.10;;;0.93;;
10523;SDS011;5310;48.638;9.060;2023-07-24T14:56:57;1.10;;;1.00;;
10523;SDS011;5310;48.638;9.060;2023-07-24T14:59:23;0.80;;;0.80;;
10523;SDS011;5310;48.638;9.060;2023-07-24T15:01:49;1.08;;;0.98;;
10523;SDS011;5310;48.638;9.060;2023-07-24T15:04:15;1.15;;;0.98;;
10523;SDS011;5310;48.638;9.060;2023-07-24T15:06:41;0.98;;;0.88;;
10523;SDS011;5310;48.638;9.060;2023-07-24T15:09:07;1.20;;;1.00;;
10523;SDS011;5310;48.638;9.060;2023-07-24T15:11:33;1.48;;;1.00;;
10523;SDS011;5310;48.638;9.060;2023-07-24T15:13:58;0.70;;;0.70;;
10523;SDS011;5310;48.638;9.060;2023-07-24T15:16:24;1.25;;;0.98;;
10523;SDS011;5310;48.638;9.060;2023-07-24T15:18:50;0.93;;;0.80;;
10523;SDS011;5310;48.638;9.060;2023-07-24T15:21:16;1.95;;;1.33;;
10523;SDS011;5310;48.638;9.060;2023-07-24T15:23:42;1.67;;;1.17;;
10523;SDS011;5310;48.638;9.060;2023-07-24T15:26:08;1.67;;;1.20;;
10523;SDS011;5310;48.638;9.060;2023-07-24T15:28:34;1.23;;;1.10;;
10523;SDS011;5310;48.638;9.060;2023-07-24T15:31:00;2.05;;;1.67;;
10523;SDS011;5310;48.638;9.060;2023-07-24T15:33:26;1.30;;;1.20;;
10523;SDS011;5310;48.638;9.060;2023-07-24T15:35:54;1.33;;;1.23;;
10523;SDS011;5310;48.638;9.060;2023-07-24T15:38:20;1.67;;;1.20;;
10523;SDS011;5310;48.638;9.060;2023-07-24T15:40:46;1.90;;;1.30;;
10523;SDS011;5310;48.638;9.060;2023-07-24T15:43:12;2.10;;;1.33;;
10523;SDS011;5310;48.638;9.060;2023-07-24T15:45:38;2.28;;;1.42;;
10523;SDS011;5310;48.638;9.060;2023-07-24T15:48:04;1.15;;;1.05;;
10523;SDS011;5310;48.638;9.060;2023-07-24T15:50:30;1.93;;;1.30;;
10523;SDS011;5310;48.638;9.060;2023-07-24T15:52:56;1.88;;;1.33;;
10523;SDS011;5310;48.638;9.060;2023-07-24T15:55:22;2.03;;;1.27;;
10523;SDS011;5310;48.638;9.060;2023-07-24T15:57:48;3.50;;;1.65;;
10523;SDS011;5310;48.638;9.060;2023-07-24T16:00:14;3.00;;;1.50;;
10523;SDS011;5310;48.638;9.060;2023-07-24T16:02:40;2.83;;;1.67;;
10523;SDS011;5310;48.638;9.060;2023-07-24T16:05:19;2.08;;;1.35;;
10523;SDS011;5310;48.638;9.060;2023-07-24T16:07:45;1.83;;;1.25;;
10523;SDS011;5310;48.638;9.060;2023-07-24T16:10:11;2.30;;;1.50;;
10523;SDS011;5310;48.638;9.060;2023-07-24T16:12:38;2.80;;;1.70;;
10523;SDS011;5310;48.638;9.060;2023-07-24T16:15:05;2.40;;;1.40;;
10523;SDS011;5310;48.638;9.060;2023-07-24T16:17:31;1.73;;;1.27;;
10523;SDS011;5310;48.638;9.060;2023-07-24T16:19:57;2.13;;;1.35;;
10523;SDS011;5310;48.638;9.060;2023-07-24T16:22:23;2.40;;;1.50;;
10523;SDS011;5310;48.638;9.060;2023-07-24T16:24:49;2.73;;;1.60;;
10523;SDS011;5310;48.638;9.060;2023-07-24T16:27:15;1.50;;;1.30;;
10523;SDS011;5310;48.638;9.060;2023-07-24T16:29:40;1.48;;;1.30;;
10523;SDS011;5310;48.638;9.060;2023-07-24T16:32:06;1.20;;;1.10;;
10523;SDS011;5310;48.638;9.060;2023-07-24T16:34:33;1.38;;;1.20;;
10523;SDS011;5310;48.638;9.060;2023-07-24T16:37:01;1.17;;;1.08;;
10523;SDS011;5310;48.638;9.060;2023-07-24T16:39:27;1.65;;;1.40;;
10523;SDS011;5310;48.638;9.060;2023-07-24T16:41:53;2.03;;;1.48;;
10523;SDS011;5310;48.638;9.060;2023-07-24T16:44:19;1.35;;;1.25;;
10523;SDS011;5310;48.638;9.060;2023-07-24T16:46:45;1.80;;;1.40;;
10523;SDS011;5310;48.638;9.060;2023-07-24T16:49:11;1.27;;;1.17;;
10523;SDS011;5310;48.638;9.060;2023-07-24T16:51:37;1.45;;;1.35;;
10523;SDS011;5310;48.638;9.060;2023-07-24T16:54:02;1.90;;;1.40;;
10523;SDS011;5310;48.638;9.060;2023-07-24T16:56:28;1.60;;;1.20;;
10523;SDS011;5310;48.638;9.060;2023-07-24T16:58:54;1.73;;;1.25;;
10523;SDS011;5310;48.638;9.060;2023-07-24T17:01:20;1.58;;;1.40;;
10523;SDS011;5310;48.638;9.060;2023-07-24T17:03:46;1.50;;;1.40;;
10523;SDS011;5310;48.638;9.060;2023-07-24T17:06:13;1.70;;;1.40;;
10523;SDS011;5310;48.638;9.060;2023-07-24T17:08:39;2.15;;;1.55;;
10523;SDS011;5310;48.638;9.060;2023-07-24T17:11:05;2.03;;;1.48;;
10523;SDS011;5310;48.638;9.060;2023-07-24T17:13:31;2.08;;;1.50;;
10523;SDS011;5310;48.638;9.060;2023-07-24T17:15:59;1.80;;;1.33;;
10523;SDS011;5310;48.638;9.060;2023-07-24T17:18:25;1.98;;;1.33;;
10523;SDS011;5310;48.638;9.060;2023-07-24T17:20:51;1.92;;;1.45;;
10523;SDS011;5310;48.638;9.060;2023-07-24T17:23:17;1.77;;;1.40;;
10523;SDS011;5310;48.638;9.060;2023-07-24T17:25:43;2.00;;;1.48;;
10523;SDS011;5310;48.638;9.060;2023-07-24T17:28:11;2.00;;;1.50;;
10523;SDS011;5310;48.638;9.060;2023-07-24T17:30:37;1.48;;;1.35;;
10523;SDS011;5310;48.638;9.060;2023-07-24T17:33:03;1.60;;;1.30;;
10523;SDS011;5310;48.638;9.060;2023-07-24T17:35:29;2.03;;;1.50;;
10523;SDS011;5310;48.638;9.060;2023-07-24T17:37:55;1.83;;;1.47;;
10523;SDS011;5310;48.638;9.060;2023-07-24T17:40:21;2.00;;;1.40;;
10523;SDS011;5310;48.638;9.060;2023-07-24T17:42:49;1.45;;;1.10;;
10523;SDS011;5310;48.638;9.060;2023-07-24T17:45:16;1.67;;;1.30;;
10523;SDS011;5310;48.638;9.060;2023-07-24T17:47:43;1.80;;;1.38;;
10523;SDS011;5310;48.638;9.060;2023-07-24T17:50:09;1.48;;;1.20;;